Time Latitude Longitude Accuracy (66% radius in meters) Altitude (meters) Speed (km/hour) Bearing (degrees) Battery (%) GPS flag
10:03:01 60.370926 29.556515 8 77.977616091831 0 296.20227050781 89 1 delete
10:02:55 60.370926 29.556515 8 78.228158278449 0 296.20227050781 89 1 delete
10:02:52 60.370831 29.556641 6 78.136728305908 0 296.20227050781 89 1 delete
10:02:40 60.370831 29.556641 12 77.030719206484 0 296.20227050781 89 1 delete
10:02:28 60.370831 29.556641 16 76.807277148883 0 296.20227050781 89 1 delete
10:02:16 60.370831 29.556641 16 76.276985089281 0 296.20227050781 89 1 delete
10:02:10 60.370831 29.556641 16 76.622548085176 0 296.20227050781 89 1 delete
10:02:04 60.370801 29.556727 12 77.437283670797 0 330.13619995117 89 1 delete
10:01:55 60.370801 29.556727 12 77.306151067571 0 330.13619995117 89 1 delete
10:01:52 60.370801 29.556727 8 77.118064249002 0 330.13619995117 89 1 delete
10:01:43 60.370751 29.556824 8 77.017773407087 0 340.61694335938 89 1 delete
10:01:31 60.370751 29.556824 8 77.323366541501 0 340.61694335938 89 1 delete
10:01:22 60.370713 29.556856 8 77.495365511535 2.8974368572235 314.77496337891 89 1 delete
10:01:19 60.370646 29.557062 12 77.330114834211 6.3074345588684 318.44650268555 89 1 delete
10:01:16 60.370612 29.557303 12 80.227226130395 5.8495016098022 248.56797790527 89 1 delete
10:01:13 60.370775 29.557468 8 82.20198261129 7.1204972267151 162.68486022949 89 1 delete
10:01:10 60.370933 29.557312 12 82.720900839922 6.8706169128418 138.35806274414 89 1 delete
10:01:07 60.371087 29.557139 8 83.184615445297 3.9982073307037 155.05662536621 89 1 delete
10:01:01 60.371119 29.557119 12 82.908553983876 0 166.15061950684 89 1 delete
10:00:58 60.371101 29.557306 8 84.790664477455 5.5044236183167 292.65124511719 89 1 delete
10:00:55 60.371006 29.557676 8 87.169330892396 7.0183033943176 296.19705200195 89 1 delete
10:00:52 60.370834 29.558049 8 90.61028973204 7.9292902946472 317.15579223633 89 1 delete
10:00:49 60.370634 29.558323 12 91.938246895425 8.289231300354 327.63098144531 89 1 delete
10:00:46 60.370430 29.558427 8 96.806182768774 6.926221370697 337.84497070312 89 1 delete
10:00:43 60.370207 29.558545 8 99.359860792754 5.7854065895081 332.66088867188 89 1 delete
10:00:40 60.370027 29.558585 8 98.558310798377 4.1485648155212 26.843929290771 89 1 delete
10:00:37 60.369876 29.558518 8 98.405593523167 4.0731782913208 359.51126098633 89 1 delete
10:00:34 60.369759 29.558616 8 98.127788934617 2.4085893630981 340.53143310547 89 1 delete
10:00:31 60.369625 29.558731 12 97.664993416713 2.92249584198 335.89303588867 89 1 delete
10:00:28 60.369507 29.558834 8 96.403789380926 3.1450192928314 337.8669128418 89 1 delete
10:00:25 60.369396 29.558929 8 96.102154009556 3.4110882282257 331.91073608398 89 1 delete
10:00:22 60.369303 29.559039 8 95.800303821321 2.6737222671509 334.98336791992 89 1 delete
10:00:19 60.369204 29.559112 8 95.665319470192 4.5960488319397 289.43670654297 89 1 delete
10:00:16 60.369140 29.559480 8 96.80428940273 4.3452820777893 282.11730957031 89 1 delete
10:00:13 60.369077 29.559782 8 97.683545035755 3.2771816253662 354.2239074707 89 1 delete
10:00:10 60.368964 29.559781 8 97.701983210991 4.2703990936279 16.056976318359 89 1 delete
10:00:07 60.368856 29.559751 8 99.693796299245 2.0943326950073 319.53280639648 89 1 delete
10:00:04 60.368801 29.559848 12 99.964833703695 2.4596712589264 317.33926391602 89 1 delete
10:00:01 60.368754 29.559865 8 100.50883432041 4.1689982414246 348.77432250977 89 1 delete
09:59:58 60.368663 29.559813 8 101.38372757155 4.401243686676 29.448247909546 89 1 delete
09:59:55 60.368545 29.559688 8 100.23307901646 4.6870746612549 26.838548660278 89 1 delete
09:59:52 60.368409 29.559584 8 100.26079632849 3.2843647003174 37.227210998535 89 1 delete
09:59:49 60.368273 29.559480 8 100.35316461467 5.5168685913086 17.361747741699 89 1 delete
09:59:46 60.368115 29.559365 8 99.794467463831 2.5736074447632 19.7415599823 89 1 delete
09:59:43 60.367987 29.559265 8 99.607811332515 3.1941940784454 15.437184333801 89 1 delete
09:59:40 60.367852 29.559207 8 98.39777710692 3.7068173885345 66.242538452148 89 1 delete
09:59:37 60.367768 29.559124 8 98.299430729633 4.0301160812378 5.4994168281555 89 1 delete
09:59:34 60.367621 29.559105 8 98.13975367291 4.1926369667053 4.176794052124 89 1 delete
09:59:31 60.367498 29.559086 8 97.939323453192 4.1238961219788 5.8471784591675 89 1 delete
09:59:28 60.367319 29.559069 8 96.690845459776 2.304562330246 2.3058347702026 89 1 delete